createdAt,value
2022-09-07T00:00:54.053Z,99401.03
2022-09-07T00:01:55.757Z,99390.50
2022-09-07T00:02:57.598Z,99408.88
2022-09-07T00:03:59.647Z,99405.63
2022-09-07T00:05:01.414Z,99409.94
2022-09-07T00:06:09.189Z,99409.94
2022-09-07T00:07:10.921Z,99410.97
2022-09-07T00:08:13.742Z,99408.31
2022-09-07T00:09:15.441Z,99417.94
2022-09-07T00:10:17.281Z,99411.25
2022-09-07T00:11:19.852Z,99411.50
2022-09-07T00:12:21.603Z,99412.78
2022-09-07T00:13:25.679Z,99410.34
2022-09-07T00:14:27.392Z,99414.31
2022-09-07T00:15:29.152Z,99405.41
2022-09-07T00:16:31.769Z,99416.63
2022-09-07T00:17:33.518Z,99409.72
2022-09-07T00:18:35.480Z,99413.97
2022-09-07T00:19:37.216Z,99412.63
2022-09-07T00:20:38.978Z,99415.28
2022-09-07T00:21:40.858Z,99417.38
2022-09-07T00:22:42.614Z,99414.94
2022-09-07T00:23:44.981Z,99414.94
2022-09-07T00:24:46.734Z,99421.59
2022-09-07T00:25:52.293Z,99418.91
2022-09-07T00:26:56.780Z,99421.75
2022-09-07T00:27:59.437Z,99403.94
2022-09-07T00:29:03.349Z,99415.03
2022-09-07T00:30:06.378Z,99425.94
2022-09-07T00:31:14.803Z,99424.31
2022-09-07T00:32:16.736Z,99407.31
2022-09-07T00:33:18.439Z,99413.53
2022-09-07T00:34:20.224Z,99428.50
2022-09-07T00:35:21.950Z,99430.63
2022-09-07T00:36:23.839Z,99431.69
2022-09-07T00:37:26.052Z,99420.66
2022-09-07T00:38:27.893Z,99427.28
2022-09-07T00:39:29.795Z,99428.94
2022-09-07T00:40:31.642Z,99430.47
2022-09-07T00:41:33.377Z,99419.50
2022-09-07T00:42:35.104Z,99431.91
2022-09-07T00:43:42.997Z,99433.41
2022-09-07T00:44:44.681Z,99437.28
2022-09-07T00:45:46.463Z,99424.97
2022-09-07T00:46:48.246Z,99430.66
2022-09-07T00:48:10.954Z,99428.22
2022-09-07T00:49:21.630Z,99414.09
2022-09-07T00:50:44.583Z,99434.84
2022-09-07T00:51:54.656Z,99431.34
2022-09-07T00:53:07.254Z,99424.41
2022-09-07T00:54:26.745Z,99424.56
2022-09-07T00:55:30.047Z,99423.50
2022-09-07T00:56:35.044Z,99428.03
2022-09-07T00:57:39.098Z,99425.59
2022-09-07T00:58:43.850Z,99432.22
2022-09-07T00:59:50.242Z,99410.66
2022-09-07T01:00:52.294Z,99431.97
2022-09-07T01:01:54.620Z,99439.16
2022-09-07T01:02:58.357Z,99426.88
2022-09-07T01:04:01.759Z,99420.84
2022-09-07T01:05:42.062Z,99435.47
2022-09-07T01:06:44.515Z,99440.78
2022-09-07T01:07:46.745Z,99425.13
2022-09-07T01:08:50.462Z,99432.78
2022-09-07T01:09:52.693Z,99428.50
2022-09-07T01:10:56.104Z,99412.19
2022-09-07T01:12:00.098Z,99428.97
2022-09-07T01:13:02.401Z,99438.00
2022-09-07T01:14:09.535Z,99433.13
2022-09-07T01:15:11.412Z,99428.75
2022-09-07T01:16:31.809Z,99435.72
2022-09-07T01:17:41.802Z,99434.09
2022-09-07T01:19:15.010Z,99427.84
2022-09-07T01:21:13.209Z,99423.13
2022-09-07T01:22:30.041Z,99430.19
2022-09-07T01:23:34.555Z,99424.16
2022-09-07T01:24:42.762Z,99432.63
2022-09-07T01:26:00.641Z,99437.13
2022-09-07T01:27:30.293Z,99429.13
2022-09-07T01:28:39.030Z,99426.00
2022-09-07T01:29:44.574Z,99427.41
2022-09-07T01:30:55.802Z,99429.25
2022-09-07T01:32:18.925Z,99426.81
2022-09-07T01:33:27.305Z,99428.81
2022-09-07T01:34:29.026Z,99425.06
2022-09-07T01:36:08.293Z,99425.06
2022-09-07T01:37:22.041Z,99418.47
2022-09-07T01:38:44.910Z,99424.63
2022-09-07T01:40:11.956Z,99422.56
2022-09-07T01:41:20.604Z,99412.72
2022-09-07T01:42:30.622Z,99413.50
2022-09-07T01:43:32.276Z,99410.84
2022-09-07T01:44:53.429Z,99408.66
2022-09-07T01:45:58.746Z,99386.94
2022-09-07T01:47:38.762Z,99410.25
2022-09-07T01:48:43.887Z,99405.84
2022-09-07T01:50:05.199Z,99410.94
2022-09-07T01:51:06.921Z,99411.16
2022-09-07T01:52:36.565Z,99408.03
2022-09-07T01:53:50.776Z,99411.41
2022-09-07T01:55:00.154Z,99403.06
2022-09-07T01:56:08.655Z,99401.78
2022-09-07T01:57:19.431Z,99408.16
2022-09-07T01:58:32.465Z,99389.38
2022-09-07T02:00:10.978Z,99404.78
2022-09-07T02:01:33.130Z,99399.38
2022-09-07T02:02:42.948Z,99390.78
2022-09-07T02:04:01.354Z,99401.88
2022-09-07T02:05:14.636Z,99386.66
2022-09-07T02:06:20.832Z,99407.59
2022-09-07T02:07:35.030Z,99406.06
2022-09-07T02:08:53.478Z,99410.50
2022-09-07T02:10:23.647Z,99410.72
2022-09-07T02:11:37.769Z,99414.53
2022-09-07T02:12:42.475Z,99416.75
2022-09-07T02:13:55.027Z,99417.75
2022-09-07T02:15:01.941Z,99407.81
2022-09-07T02:16:10.989Z,99416.75
2022-09-07T02:17:33.958Z,99409.34
2022-09-07T02:18:45.593Z,99415.38
2022-09-07T02:19:52.713Z,99410.41
2022-09-07T02:20:58.165Z,99417.69
2022-09-07T02:22:05.581Z,99411.22
2022-09-07T02:23:32.461Z,99412.97
2022-09-07T02:24:40.299Z,99398.72
2022-09-07T02:25:56.106Z,99418.44
2022-09-07T02:27:02.204Z,99404.06
2022-09-07T02:28:14.816Z,99389.81
2022-09-07T02:29:16.540Z,99410.91
2022-09-07T02:30:18.244Z,99402.69
2022-09-07T02:31:20.511Z,99411.03
2022-09-07T02:32:22.361Z,99408.97
2022-09-07T02:33:24.346Z,99393.44
2022-09-07T02:34:26.197Z,99394.84
2022-09-07T02:35:27.930Z,99403.53
2022-09-07T02:36:33.946Z,99401.66
2022-09-07T02:37:37.289Z,99402.84
2022-09-07T02:38:39.038Z,99384.03
2022-09-07T02:39:40.871Z,99393.75
2022-09-07T02:40:42.758Z,99391.09
2022-09-07T02:41:46.322Z,99397.13
2022-09-07T02:42:48.905Z,99395.28
2022-09-07T02:43:50.656Z,99394.94
2022-09-07T02:44:52.569Z,99392.63
2022-09-07T02:46:20.887Z,99392.72
2022-09-07T02:47:39.072Z,99389.16
2022-09-07T02:49:05.694Z,99389.50
2022-09-07T02:50:33.073Z,99394.72
2022-09-07T02:52:01.836Z,99396.34
2022-09-07T02:53:24.728Z,99390.31
2022-09-07T02:54:44.957Z,99389.97
2022-09-07T02:56:06.446Z,99394.47
2022-09-07T02:57:46.670Z,99397.72
2022-09-07T02:59:12.744Z,99399.91
2022-09-07T03:00:20.999Z,99397.59
2022-09-07T03:01:31.740Z,99407.78
2022-09-07T03:03:15.571Z,99395.38
2022-09-07T03:04:27.720Z,99395.88
2022-09-07T03:05:59.088Z,99399.09
2022-09-07T03:07:16.038Z,99391.69
2022-09-07T03:08:26.047Z,99398.19
2022-09-07T03:09:32.098Z,99403.06
2022-09-07T03:10:34.503Z,99395.06
2022-09-07T03:11:37.801Z,99387.88
2022-09-07T03:12:40.758Z,99397.59
2022-09-07T03:13:42.503Z,99394.72
2022-09-07T03:14:44.606Z,99402.72
2022-09-07T03:15:46.370Z,99405.81
2022-09-07T03:16:50.955Z,99396.78
2022-09-07T03:17:53.308Z,99400.28
2022-09-07T03:18:55.028Z,99401.09
2022-09-07T03:19:56.872Z,99398.19
2022-09-07T03:20:58.676Z,99398.78
2022-09-07T03:22:00.388Z,99404.09
2022-09-07T03:23:02.099Z,99391.13
2022-09-07T03:24:04.119Z,99416.25
2022-09-07T03:25:06.529Z,99400.72
2022-09-07T03:26:15.276Z,99396.09
2022-09-07T03:27:17.002Z,99403.75
2022-09-07T03:28:18.789Z,99398.19
2022-09-07T03:29:20.533Z,99394.72
2022-09-07T03:30:22.288Z,99400.63
2022-09-07T03:31:24.194Z,99391.69
2022-09-07T03:32:30.998Z,99399.94
2022-09-07T03:33:32.711Z,99403.16
2022-09-07T03:34:34.506Z,99406.41
2022-09-07T03:35:36.278Z,99407.81
2022-09-07T03:36:38.088Z,99401.44
2022-09-07T03:37:39.810Z,99406.78
2022-09-07T03:38:41.637Z,99398.66
2022-09-07T03:39:43.411Z,99401.31
2022-09-07T03:40:45.128Z,99397.63
2022-09-07T03:41:47.043Z,99363.91
2022-09-07T03:42:50.390Z,99410.34
2022-09-07T03:43:52.768Z,99404.22
2022-09-07T03:44:54.504Z,99364.94
2022-09-07T03:46:00.679Z,99395.41
2022-09-07T03:47:02.498Z,99417.53
2022-09-07T03:48:04.301Z,99412.69
2022-09-07T03:49:06.020Z,99414.63
2022-09-07T03:50:08.144Z,99407.59
2022-09-07T03:51:11.614Z,99416.63
2022-09-07T03:52:13.380Z,99415.59
2022-09-07T03:53:15.094Z,99406.66
2022-09-07T03:54:16.805Z,99424.16
2022-09-07T03:55:18.528Z,99420.22
2022-09-07T03:56:22.876Z,99423.72
2022-09-07T03:57:24.576Z,99425.06
2022-09-07T03:58:28.281Z,99423.22
2022-09-07T03:59:30.045Z,99418.84
2022-09-07T04:00:31.815Z,99427.28
2022-09-07T04:01:33.784Z,99423.81
2022-09-07T04:02:35.594Z,99419.16
2022-09-07T04:03:37.997Z,99412.69
2022-09-07T04:04:39.720Z,99427.97
2022-09-07T04:05:41.418Z,99424.84
2022-09-07T04:06:43.394Z,99424.16
2022-09-07T04:07:45.119Z,99413.97
2022-09-07T04:08:47.146Z,99429.59
2022-09-07T04:09:51.407Z,99421.28
2022-09-07T04:10:53.132Z,99435.41
2022-09-07T04:11:54.920Z,99440.38
2022-09-07T04:12:56.903Z,99437.94
2022-09-07T04:13:58.806Z,99434.47
2022-09-07T04:15:00.553Z,99439.22
2022-09-07T04:16:23.739Z,99440.25
2022-09-07T04:17:25.535Z,99397.50
2022-09-07T04:18:27.325Z,99438.38
2022-09-07T04:19:30.157Z,99443.13
2022-09-07T04:20:31.951Z,99432.72
2022-09-07T04:21:34.369Z,99439.34
2022-09-07T04:22:36.083Z,99440.25
2022-09-07T04:23:39.724Z,99439.13
2022-09-07T04:24:41.526Z,99417.22
2022-09-07T04:25:50.412Z,99423.34
2022-09-07T04:26:52.508Z,99437.16
2022-09-07T04:27:56.107Z,99442.16
2022-09-07T04:28:58.818Z,99434.47
2022-09-07T04:30:00.562Z,99444.16
2022-09-07T04:31:03.292Z,99451.09
2022-09-07T04:32:05.155Z,99453.47
2022-09-07T04:33:07.026Z,99449.16
2022-09-07T04:34:09.829Z,99441.00
2022-09-07T04:35:11.535Z,99451.84
2022-09-07T04:36:13.875Z,99453.16
2022-09-07T04:37:15.659Z,99447.75
2022-09-07T04:38:17.569Z,99432.88
2022-09-07T04:39:19.338Z,99451.22
2022-09-07T04:40:21.062Z,99451.22
2022-09-07T04:41:23.175Z,99457.13
2022-09-07T04:42:24.912Z,99451.19
2022-09-07T04:43:27.109Z,99461.84
2022-09-07T04:44:28.872Z,99451.03
2022-09-07T04:45:30.576Z,99465.53
2022-09-07T04:46:34.687Z,99456.63
2022-09-07T04:47:36.430Z,99460.88
2022-09-07T04:48:38.135Z,99461.31
2022-09-07T04:49:39.960Z,99453.94
2022-09-07T04:50:41.717Z,99470.53
2022-09-07T04:51:44.427Z,99460.25
2022-09-07T04:52:46.267Z,99472.44
2022-09-07T04:53:50.318Z,99456.69
2022-09-07T04:54:52.081Z,99460.84
2022-09-07T04:55:53.823Z,99459.31
2022-09-07T04:56:55.560Z,99453.16
2022-09-07T04:57:57.277Z,99454.81
2022-09-07T04:59:00.862Z,99441.41
2022-09-07T05:00:02.897Z,99456.78
2022-09-07T05:01:06.496Z,99455.97
2022-09-07T05:02:08.415Z,99458.88
2022-09-07T05:03:10.246Z,99459.94
2022-09-07T05:04:11.986Z,99466.66
2022-09-07T05:05:13.871Z,99454.75
2022-09-07T05:06:17.406Z,99464.88
2022-09-07T05:07:19.164Z,99424.47
2022-09-07T05:08:20.938Z,99469.56
2022-09-07T05:09:22.637Z,99471.91
2022-09-07T05:10:24.739Z,99470.69
2022-09-07T05:11:29.692Z,99475.16
2022-09-07T05:12:31.711Z,99471.53
2022-09-07T05:13:33.614Z,99467.41
2022-09-07T05:14:35.465Z,99471.56
2022-09-07T05:15:37.192Z,99479.28
2022-09-07T05:16:38.997Z,99473.19
2022-09-07T05:17:43.238Z,99476.78
2022-09-07T05:18:49.352Z,99472.00
2022-09-07T05:19:51.083Z,99464.56
2022-09-07T05:20:52.826Z,99468.25
2022-09-07T05:21:57.225Z,99482.66
2022-09-07T05:22:59.760Z,99484.09
2022-09-07T05:24:02.647Z,99471.31
2022-09-07T05:25:04.612Z,99476.41
2022-09-07T05:26:06.736Z,99473.69
2022-09-07T05:27:08.547Z,99479.94
2022-09-07T05:28:10.812Z,99478.72
2022-09-07T05:31:56.211Z,99475.84
2022-09-07T05:32:58.556Z,99464.91
2022-09-07T05:35:22.153Z,99471.09
2022-09-07T05:36:27.005Z,99461.03
2022-09-07T05:37:28.728Z,99476.59
2022-09-07T05:38:30.580Z,99476.38
2022-09-07T05:39:32.539Z,99485.53
2022-09-07T05:40:39.876Z,99470.63
2022-09-07T05:41:42.344Z,99479.84
2022-09-07T05:42:44.051Z,99485.22
2022-09-07T05:45:08.438Z,99477.38
2022-09-07T05:46:10.969Z,99477.91
2022-09-07T05:47:13.048Z,99473.69
2022-09-07T05:48:14.776Z,99491.38
2022-09-07T05:49:16.516Z,99477.97
2022-09-07T05:50:18.322Z,99482.41
2022-09-07T05:51:20.033Z,99481.47
2022-09-07T05:52:21.778Z,99480.13
2022-09-07T05:53:23.620Z,99474.97
2022-09-07T05:54:25.665Z,99478.56
2022-09-07T05:55:30.238Z,99460.06
2022-09-07T05:56:36.437Z,99455.81
2022-09-07T05:57:38.232Z,99468.16
2022-09-07T05:58:40.141Z,99466.41
2022-09-07T05:59:41.942Z,99475.88
2022-09-07T06:00:44.368Z,99475.44
2022-09-07T06:01:46.186Z,99471.44
2022-09-07T06:02:48.826Z,99467.66
2022-09-07T06:03:50.638Z,99465.75
2022-09-07T06:04:52.424Z,99472.94
2022-09-07T06:06:10.945Z,99471.38
2022-09-07T06:07:22.438Z,99467.03
2022-09-07T06:08:24.808Z,99465.28
2022-09-07T06:09:30.354Z,99456.31
2022-09-07T06:10:44.245Z,99465.63
2022-09-07T06:11:46.337Z,99464.22
2022-09-07T06:12:49.268Z,99465.31
2022-09-07T06:13:52.255Z,99462.75
2022-09-07T06:14:53.998Z,99467.38
2022-09-07T06:16:00.862Z,99466.88
2022-09-07T06:17:02.653Z,99464.44
2022-09-07T06:18:04.386Z,99462.22
2022-09-07T06:19:07.701Z,99453.13
2022-09-07T06:20:09.946Z,99459.06
2022-09-07T06:21:17.982Z,99460.63
2022-09-07T06:22:19.689Z,99457.41
2022-09-07T06:23:21.405Z,99455.00
2022-09-07T06:24:23.180Z,99449.66
2022-09-07T06:25:24.975Z,99459.66
2022-09-07T06:26:26.689Z,99458.16
2022-09-07T06:27:29.491Z,99459.78
2022-09-07T06:28:33.933Z,99459.88
2022-09-07T06:29:35.851Z,99452.97
2022-09-07T06:30:37.755Z,99455.44
2022-09-07T06:33:01.131Z,99448.72
2022-09-07T06:34:02.869Z,99406.88
2022-09-07T06:35:05.022Z,99461.59
2022-09-07T06:36:11.111Z,99453.03
2022-09-07T06:37:12.873Z,99444.91
2022-09-07T06:38:14.581Z,99455.72
2022-09-07T06:39:16.394Z,99459.53
2022-09-07T06:40:18.116Z,99454.97
2022-09-07T06:42:43.999Z,99460.28
2022-09-07T06:43:46.224Z,99461.56
2022-09-07T06:44:47.935Z,99452.53
2022-09-07T06:45:54.619Z,99453.06
2022-09-07T06:47:04.083Z,99458.28
2022-09-07T06:48:06.492Z,99447.69
2022-09-07T06:49:08.232Z,99465.50
2022-09-07T06:50:10.246Z,99446.03
2022-09-07T06:51:20.413Z,99463.50
2022-09-07T06:52:22.561Z,99452.66
2022-09-07T06:55:57.088Z,99455.72
2022-09-07T06:56:58.782Z,99468.75
2022-09-07T06:58:00.473Z,99470.19
2022-09-07T06:59:02.338Z,99453.72
2022-09-07T07:00:04.755Z,99463.19
2022-09-07T07:01:10.379Z,99457.75
2022-09-07T07:02:14.857Z,99467.72
2022-09-07T07:03:16.883Z,99460.56
2022-09-07T07:04:18.628Z,99471.06
2022-09-07T07:05:20.355Z,99468.56
2022-09-07T07:06:22.387Z,99462.97
2022-09-07T07:07:24.114Z,99477.00
2022-09-07T07:08:26.206Z,99463.09
2022-09-07T07:09:28.237Z,99475.75
2022-09-07T07:10:30.046Z,99469.19
2022-09-07T07:11:31.811Z,99474.22
2022-09-07T07:13:38.877Z,99462.78
2022-09-07T07:14:44.607Z,99483.94
2022-09-07T07:15:47.037Z,99481.09
2022-09-07T07:16:48.767Z,99469.41
2022-09-07T07:17:58.103Z,99486.72
2022-09-07T07:19:01.140Z,99464.31
2022-09-07T07:20:03.106Z,99481.97
2022-09-07T07:21:10.965Z,99476.88
2022-09-07T07:22:44.980Z,99484.94
2022-09-07T07:23:35.271Z,99482.53
2022-09-07T07:24:36.984Z,99473.34
2022-09-07T07:25:38.703Z,99472.19
2022-09-07T07:26:41.404Z,99473.09
2022-09-07T07:27:44.246Z,99478.16
2022-09-07T07:29:04.565Z,99475.75
2022-09-07T07:30:06.839Z,99486.06
2022-09-07T07:31:11.333Z,99480.72
2022-09-07T07:32:14.847Z,99479.72
2022-09-07T07:33:16.576Z,99479.72
2022-09-07T07:34:18.325Z,99485.34
2022-09-07T07:35:20.254Z,99485.09
2022-09-07T07:36:27.097Z,99484.53
2022-09-07T07:37:28.886Z,99491.59
2022-09-07T07:42:39.938Z,99473.34
2022-09-07T07:43:41.643Z,99481.66
2022-09-07T07:44:43.299Z,99479.84
2022-09-07T07:46:03.901Z,99486.84
2022-09-07T07:47:07.025Z,99483.66
2022-09-07T07:48:12.171Z,99483.38
2022-09-07T07:49:13.824Z,99477.09
2022-09-07T07:50:31.842Z,99474.09
2022-09-07T07:52:49.842Z,99469.47
2022-09-07T07:54:17.872Z,99473.69
2022-09-07T07:56:41.225Z,99468.19
2022-09-07T07:57:42.992Z,99473.72
2022-09-07T07:58:46.791Z,99483.38
2022-09-07T07:59:48.458Z,99477.31
2022-09-07T08:00:54.585Z,99478.06
2022-09-07T08:01:57.181Z,99482.72
2022-09-07T08:02:58.909Z,99485.03
2022-09-07T08:04:01.197Z,99478.47
2022-09-07T08:05:02.859Z,99471.22
2022-09-07T08:06:11.377Z,99475.56
2022-09-07T08:07:13.276Z,99479.59
2022-09-07T08:08:15.599Z,99475.25
2022-09-07T08:09:17.374Z,99474.97
2022-09-07T08:10:19.652Z,99477.81
2022-09-07T08:11:22.204Z,99471.25
2022-09-07T08:12:29.105Z,99479.44
2022-09-07T08:13:33.919Z,99483.38
2022-09-07T08:14:41.887Z,99461.19
2022-09-07T08:15:46.995Z,99471.34
2022-09-07T08:16:48.949Z,99462.41
2022-09-07T08:17:50.765Z,99455.09
2022-09-07T08:18:53.833Z,99454.88
2022-09-07T08:19:55.988Z,99465.09
2022-09-07T08:21:02.341Z,99441.59
2022-09-07T08:22:04.222Z,99457.03
2022-09-07T08:23:07.619Z,99459.09
2022-09-07T08:24:09.434Z,99465.25
2022-09-07T08:25:11.557Z,99458.41
2022-09-07T08:26:13.369Z,99457.00
2022-09-07T08:27:19.146Z,99458.47
2022-09-07T08:28:22.262Z,99466.91
2022-09-07T08:29:24.354Z,99457.19
2022-09-07T08:30:26.146Z,99461.88
2022-09-07T08:31:27.861Z,99461.47
2022-09-07T08:32:29.790Z,99458.16
2022-09-07T08:33:31.793Z,99454.72
2022-09-07T08:34:36.325Z,99446.69
2022-09-07T08:35:37.954Z,99456.50
2022-09-07T08:36:39.632Z,99451.59
2022-09-07T08:37:41.293Z,99453.81
2022-09-07T08:38:43.107Z,99446.47
2022-09-07T08:39:44.851Z,99452.22
2022-09-07T08:40:47.070Z,99448.00
2022-09-07T08:42:13.375Z,99441.19
2022-09-07T08:43:43.864Z,99453.22
2022-09-07T08:44:52.117Z,99447.72
2022-09-07T08:46:02.234Z,99439.06
2022-09-07T08:47:41.578Z,99440.91
2022-09-07T08:48:44.141Z,99440.28
2022-09-07T08:49:52.098Z,99438.00
2022-09-07T08:51:00.866Z,99432.28
2022-09-07T08:52:30.685Z,99433.50
2022-09-07T08:53:32.568Z,99431.44
2022-09-07T08:54:35.380Z,99427.38
2022-09-07T08:55:43.429Z,99426.47
2022-09-07T08:58:47.565Z,99428.50
2022-09-07T09:00:11.751Z,99429.50
2022-09-07T09:01:37.639Z,99427.72
2022-09-07T09:02:43.967Z,99426.38
2022-09-07T09:05:22.896Z,99425.56
2022-09-07T09:06:27.591Z,99422.94
2022-09-07T09:07:44.245Z,99430.25
2022-09-07T09:09:06.408Z,99425.00
2022-09-07T09:10:20.288Z,99417.94
2022-09-07T09:11:21.938Z,99418.19
2022-09-07T09:12:45.431Z,99415.19
2022-09-07T09:14:06.528Z,99407.38
2022-09-07T09:15:13.056Z,99404.09
2022-09-07T09:16:24.097Z,99413.53
2022-09-07T09:17:34.821Z,99411.84
2022-09-07T09:18:54.515Z,99403.41
2022-09-07T09:20:02.002Z,99405.72
2022-09-07T09:21:07.994Z,99386.03
2022-09-07T09:22:13.746Z,99395.00
2022-09-07T09:23:25.896Z,99404.91
2022-09-07T09:24:37.649Z,99398.31
2022-09-07T09:26:02.113Z,99410.44
2022-09-07T09:27:04.035Z,99408.56
2022-09-07T09:28:05.893Z,99400.63
2022-09-07T09:29:22.127Z,99405.06
2022-09-07T09:30:24.867Z,99399.31
2022-09-07T09:31:34.163Z,99407.22
2022-09-07T09:32:35.966Z,99402.16
2022-09-07T09:33:37.652Z,99399.63
2022-09-07T09:34:39.326Z,99399.22
2022-09-07T09:35:41.446Z,99397.41
2022-09-07T09:36:48.007Z,99399.78
2022-09-07T09:37:49.716Z,99395.97
2022-09-07T09:38:51.683Z,99399.19
2022-09-07T09:40:00.670Z,99396.69
2022-09-07T09:41:23.572Z,99388.66
2022-09-07T09:42:35.128Z,99393.34
2022-09-07T09:43:43.562Z,99390.84
2022-09-07T09:44:45.654Z,99398.44
2022-09-07T09:47:36.178Z,99393.06
2022-09-07T09:48:40.489Z,99394.47
2022-09-07T09:49:45.081Z,99365.31
2022-09-07T09:52:29.643Z,99379.28
2022-09-07T09:53:40.372Z,99392.50
2022-09-07T09:54:43.605Z,99380.53
2022-09-07T09:55:52.945Z,99383.47
2022-09-07T09:56:54.848Z,99375.97
2022-09-07T10:05:00.643Z,99361.06
2022-09-07T10:06:06.727Z,99356.88
2022-09-07T10:07:28.575Z,99362.91
2022-09-07T10:08:32.776Z,99352.88
2022-09-07T10:09:40.586Z,99361.41
2022-09-07T10:11:05.920Z,99358.22
2022-09-07T10:12:32.185Z,99359.03
2022-09-07T10:13:35.438Z,99352.63
2022-09-07T10:14:46.831Z,99354.22
2022-09-07T10:15:53.890Z,99355.03
2022-09-07T10:16:56.331Z,99342.94
2022-09-07T10:17:59.687Z,99345.56
2022-09-07T10:19:03.083Z,99346.13
2022-09-07T10:20:16.697Z,99341.34
2022-09-07T10:21:30.278Z,99340.25
2022-09-07T10:22:38.965Z,99344.50
2022-09-07T10:23:41.119Z,99349.53
2022-09-07T10:24:42.875Z,99330.16
2022-09-07T10:25:44.623Z,99336.13
2022-09-07T10:26:48.753Z,99323.41
2022-09-07T10:28:05.912Z,99332.22
2022-09-07T10:29:11.758Z,99326.81
2022-09-07T10:30:16.620Z,99326.19
2022-09-07T10:31:31.891Z,99325.94
2022-09-07T10:33:17.522Z,99321.81
2022-09-07T10:34:45.060Z,99325.28
2022-09-07T10:36:07.565Z,99318.22
2022-09-07T10:37:25.818Z,99314.50
2022-09-07T10:38:34.605Z,99309.22
2022-09-07T10:39:49.368Z,99309.16
2022-09-07T10:41:07.472Z,99307.75
2022-09-07T10:42:09.368Z,99304.19
2022-09-07T10:43:39.018Z,99298.66
2022-09-07T10:45:14.700Z,99306.47
2022-09-07T10:48:26.446Z,99306.28
2022-09-07T10:50:21.926Z,99304.22
2022-09-07T10:51:17.987Z,99298.88
2022-09-07T10:52:45.965Z,99300.09
2022-09-07T10:55:36.695Z,99288.53
2022-09-07T10:56:47.338Z,99292.63
2022-09-07T10:58:16.717Z,99287.69
2022-09-07T11:01:31.210Z,99296.97
2022-09-07T11:04:24.810Z,99296.41
2022-09-07T11:05:48.120Z,99282.31
2022-09-07T11:06:55.476Z,99275.06
2022-09-07T11:08:15.958Z,99284.03
2022-09-07T11:09:29.388Z,99287.88
2022-09-07T11:10:36.864Z,99289.91
2022-09-07T11:12:27.996Z,99281.00
2022-09-07T11:13:40.974Z,99282.47
2022-09-07T11:15:12.969Z,99282.25
2022-09-07T11:17:46.533Z,99282.72
2022-09-07T11:19:35.118Z,99283.63
2022-09-07T11:20:33.988Z,99279.41
2022-09-07T11:21:56.751Z,99279.28
2022-09-07T11:22:58.468Z,99275.75
2022-09-07T11:24:09.459Z,99270.66
2022-09-07T11:25:32.802Z,99273.53
2022-09-07T11:26:50.798Z,99269.97
2022-09-07T11:27:55.811Z,99272.09
2022-09-07T11:30:57.844Z,99269.56
2022-09-07T11:32:17.714Z,99263.22
2022-09-07T11:33:28.564Z,99259.16
2022-09-07T11:34:40.832Z,99269.94
2022-09-07T11:35:48.865Z,99251.44
2022-09-07T11:36:58.583Z,99265.38
2022-09-07T11:38:06.531Z,99266.84
2022-09-07T11:39:18.725Z,99258.81
2022-09-07T11:40:53.176Z,99255.03
2022-09-07T11:43:41.489Z,99248.78
2022-09-07T11:44:51.872Z,99246.81
2022-09-07T11:45:59.293Z,99245.38
2022-09-07T11:47:08.527Z,99240.06
2022-09-07T11:48:19.873Z,99253.63
2022-09-07T11:49:30.653Z,99250.81
2022-09-07T11:50:38.563Z,99243.81
2022-09-07T11:51:42.304Z,99244.84
2022-09-07T11:52:56.202Z,99247.13
2022-09-07T11:54:06.752Z,99248.75
2022-09-07T11:55:12.902Z,99240.84
2022-09-07T11:56:29.020Z,99243.81
2022-09-07T11:57:42.519Z,99240.72
2022-09-07T11:58:59.095Z,99238.50
2022-09-07T12:00:12.231Z,99234.13
2022-09-07T12:01:39.604Z,99236.63
2022-09-07T12:02:59.822Z,99235.84
2022-09-07T12:04:12.019Z,99228.47
2022-09-07T12:05:38.259Z,99230.28
2022-09-07T12:06:54.975Z,99230.97
2022-09-07T12:07:59.466Z,99225.28
2022-09-07T12:09:01.051Z,99233.19
2022-09-07T12:10:20.932Z,99234.16
2022-09-07T12:11:54.687Z,99225.66
2022-09-07T12:13:03.047Z,99220.91
2022-09-07T12:14:27.950Z,99219.81
2022-09-07T12:16:05.779Z,99220.75
2022-09-07T12:17:10.458Z,99217.47
2022-09-07T12:18:32.013Z,99221.97
2022-09-07T12:19:34.238Z,99218.50
2022-09-07T12:20:42.530Z,99214.78
2022-09-07T12:21:53.204Z,99217.66
2022-09-07T12:23:04.242Z,99216.41
2022-09-07T12:24:38.849Z,99218.22
2022-09-07T12:25:40.990Z,99214.06
2022-09-07T12:26:42.605Z,99216.09
2022-09-07T12:27:44.385Z,99218.50
2022-09-07T12:28:46.077Z,99208.94
2022-09-07T12:30:13.146Z,99213.38
2022-09-07T12:31:57.276Z,99211.44
2022-09-07T12:33:06.004Z,99194.44
2022-09-07T12:34:32.672Z,99211.69
2022-09-07T12:35:34.324Z,99216.50
2022-09-07T12:36:35.995Z,99218.97
2022-09-07T12:37:40.256Z,99204.47
2022-09-07T12:39:19.618Z,99210.50
2022-09-07T12:40:27.586Z,99208.59
2022-09-07T12:43:44.672Z,99206.53
2022-09-07T12:44:46.373Z,99200.75
2022-09-07T12:45:51.854Z,99194.78
2022-09-07T12:46:59.086Z,99199.91
2022-09-07T12:48:23.903Z,99196.38
2022-09-07T12:49:44.324Z,99204.53
2022-09-07T12:51:10.262Z,99197.25
2022-09-07T12:52:40.397Z,99197.50
2022-09-07T12:53:57.983Z,99199.66
2022-09-07T12:55:27.486Z,99193.94
2022-09-07T12:56:47.067Z,99199.25
2022-09-07T12:58:22.984Z,99200.22
2022-09-07T12:59:24.616Z,99184.09
2022-09-07T13:00:55.404Z,99191.59
2022-09-07T13:02:21.551Z,99195.00
2022-09-07T13:03:52.808Z,99188.56
2022-09-07T13:05:36.345Z,99189.03
2022-09-07T13:07:02.789Z,99188.59
2022-09-07T13:08:30.839Z,99173.09
2022-09-07T13:09:32.593Z,99190.19
2022-09-07T13:10:37.144Z,99178.69
2022-09-07T13:11:40.271Z,99174.06
2022-09-07T13:12:57.022Z,99186.19
2022-09-07T13:14:26.972Z,99182.31
2022-09-07T13:15:41.102Z,99181.84
2022-09-07T13:18:12.600Z,99177.53
2022-09-07T13:19:46.197Z,99178.00
2022-09-07T13:21:07.967Z,99180.72
2022-09-07T13:22:29.691Z,99176.91
2022-09-07T13:23:31.658Z,99175.59
2022-09-07T13:24:46.257Z,99172.72
2022-09-07T13:25:51.933Z,99173.53
2022-09-07T13:27:05.870Z,99177.03
2022-09-07T13:28:52.734Z,99175.28
2022-09-07T13:30:22.401Z,99173.69
2022-09-07T13:31:59.068Z,99178.31
2022-09-07T13:33:25.278Z,99163.28
2022-09-07T13:34:32.668Z,99168.56
2022-09-07T13:35:35.405Z,99159.94
2022-09-07T13:36:40.620Z,99150.81
2022-09-07T13:37:52.510Z,99162.00
2022-09-07T13:38:55.563Z,99154.66
2022-09-07T13:39:58.798Z,99154.34
2022-09-07T13:41:26.292Z,99155.78
2022-09-07T13:42:27.896Z,99147.03
2022-09-07T13:43:30.684Z,99150.03
2022-09-07T13:44:34.635Z,99147.31
2022-09-07T13:45:54.876Z,99140.75
2022-09-07T13:47:13.350Z,99149.69
2022-09-07T13:48:41.034Z,99136.72
2022-09-07T13:49:51.406Z,99149.03
2022-09-07T13:51:05.938Z,99146.66
2022-09-07T13:52:22.480Z,99154.66
2022-09-07T13:53:33.480Z,99149.72
2022-09-07T13:55:16.509Z,99147.81
2022-09-07T13:56:26.986Z,99150.06
2022-09-07T13:57:32.993Z,99148.63
2022-09-07T13:58:43.659Z,99149.25
2022-09-07T13:59:47.828Z,99132.00
2022-09-07T14:00:53.995Z,99134.28
2022-09-07T14:01:57.223Z,99143.03
2022-09-07T14:03:07.475Z,99138.25
2022-09-07T14:04:27.231Z,99126.09
2022-09-07T14:05:28.996Z,99139.06
2022-09-07T14:06:33.389Z,99134.09
2022-09-07T14:07:35.240Z,99145.44
2022-09-07T14:08:39.824Z,99142.84
2022-09-07T14:09:42.318Z,99145.56
2022-09-07T14:10:48.702Z,99147.81
2022-09-07T14:11:52.713Z,99151.66
2022-09-07T14:13:14.591Z,99147.47